메인 페이지
METAR-TAF:

METAR-TAF

공항 :

콜럼버스, 조지아, 미국

위도: 32-30-58N, 경도: 084-56-32W, 고도: 121m

현재 날씨관측

예보는 50분 전, 00:51시(UTC)에 발표되었습니다.
3kt
온도 30°C
습도 49%
기압 1015 hPa
시정: 16.1km
맑음

METAR: KCSG 170051Z 19003KT 10SM CLR 30/18 A2998 RMK AO2 SLP145 T03000183 $

시각: 21:41 (01:41 UTC)

예보

예보는 2 시간 12분 전, 23:29시(UTC)에 발표되었습니다.
예보 대상 시간: 17일 00시부터 17일 24시까지 (UTC)
서남서3kt
시정: 10km
맑음
17일 0200시부터 (UTC)
남남동4kt
시정: 10km
고도 25000ft 상공 구름 조금
17일 1500시부터 (UTC)
kt
시정: 10km
고도 3000ft 상공 구름 조금
17일 2100시부터 (UTC)
6kt
시정: 10km
고도 4000ft 상공 구름 많음
17일 2300시부터 (UTC)
5kt
시정: 10km
고도 5000ft 상공 구름 보통

TAF: KCSG 162329Z 1700/1724 24003KT P6SM SKC FM170200 15004KT P6SM FEW250 FM171500 00000KT P6SM FEW030 FM172100 17006KT P6SM BKN040 FM172300 19005KT P6SM SCT050

4,000개 이상의 공항 관측 자료 및 예보 (METAR 및 TAF 보고).

지도상에서 검색 가능한 기상관측소가 노란 점과 빨간 점으로 표시되어 있습니다.

기상관측소 명을 보려면 표시 위로 마우스를 이동하세요.

날씨 관측과 예보를 보려면 클릭하세요.

지도 변경 : 확대하려면 엑스 표시가 있는 녹색 버튼, 축소하려면 빼기 표시가 있는 녹색 버튼, 다음 페이지의 지도를 보려면 녹색 화살표를 클릭하세요.


METAR-TAF: